sensor_id;sensor_type;location;lat;lon;timestamp;temperature;humidity
23703;DHT22;12030;50.376;8.762;2024-01-30T00:02:16;1.50;99.90
23703;DHT22;12030;50.376;8.762;2024-01-30T00:04:41;1.60;99.90
23703;DHT22;12030;50.376;8.762;2024-01-30T00:07:07;1.60;99.90
23703;DHT22;12030;50.376;8.762;2024-01-30T00:09:32;1.40;99.90
23703;DHT22;12030;50.376;8.762;2024-01-30T00:11:58;1.30;99.90
23703;DHT22;12030;50.376;8.762;2024-01-30T00:14:24;1.20;99.90
23703;DHT22;12030;50.376;8.762;2024-01-30T00:16:50;1.30;99.90
23703;DHT22;12030;50.376;8.762;2024-01-30T00:19:17;1.30;99.90
23703;DHT22;12030;50.376;8.762;2024-01-30T00:21:43;1.30;99.90
23703;DHT22;12030;50.376;8.762;2024-01-30T00:24:08;1.20;99.90
23703;DHT22;12030;50.376;8.762;2024-01-30T00:26:34;1.10;99.90
23703;DHT22;12030;50.376;8.762;2024-01-30T00:28:59;1.20;99.90
23703;DHT22;12030;50.376;8.762;2024-01-30T00:31:25;1.10;99.90
23703;DHT22;12030;50.376;8.762;2024-01-30T00:33:51;1.00;99.90
23703;DHT22;12030;50.376;8.762;2024-01-30T00:36:16;0.90;99.90
23703;DHT22;12030;50.376;8.762;2024-01-30T00:38:42;0.90;99.90
23703;DHT22;12030;50.376;8.762;2024-01-30T00:41:11;1.00;99.90
23703;DHT22;12030;50.376;8.762;2024-01-30T00:43:37;0.90;99.90
23703;DHT22;12030;50.376;8.762;2024-01-30T00:46:02;1.00;99.90
23703;DHT22;12030;50.376;8.762;2024-01-30T00:48:28;0.90;99.90
23703;DHT22;12030;50.376;8.762;2024-01-30T00:50:54;0.90;99.90
23703;DHT22;12030;50.376;8.762;2024-01-30T00:53:20;0.90;99.90
23703;DHT22;12030;50.376;8.762;2024-01-30T00:55:45;1.00;99.90
23703;DHT22;12030;50.376;8.762;2024-01-30T00:58:11;1.00;99.90
23703;DHT22;12030;50.376;8.762;2024-01-30T01:00:36;1.10;99.90
23703;DHT22;12030;50.376;8.762;2024-01-30T01:03:03;1.10;99.90
23703;DHT22;12030;50.376;8.762;2024-01-30T01:05:28;1.00;99.90
23703;DHT22;12030;50.376;8.762;2024-01-30T01:07:54;1.00;99.90
23703;DHT22;12030;50.376;8.762;2024-01-30T01:10:20;1.00;99.90
23703;DHT22;12030;50.376;8.762;2024-01-30T01:12:46;0.90;99.90
23703;DHT22;12030;50.376;8.762;2024-01-30T01:15:12;0.90;99.90
23703;DHT22;12030;50.376;8.762;2024-01-30T01:17:38;0.90;99.90
23703;DHT22;12030;50.376;8.762;2024-01-30T01:20:05;0.90;99.90
23703;DHT22;12030;50.376;8.762;2024-01-30T01:22:31;0.90;99.90
23703;DHT22;12030;50.376;8.762;2024-01-30T01:24:57;0.80;99.90
23703;DHT22;12030;50.376;8.762;2024-01-30T01:27:23;0.70;99.90
23703;DHT22;12030;50.376;8.762;2024-01-30T01:29:49;0.80;99.90
23703;DHT22;12030;50.376;8.762;2024-01-30T01:32:14;0.80;99.90
23703;DHT22;12030;50.376;8.762;2024-01-30T01:34:40;0.80;99.90
23703;DHT22;12030;50.376;8.762;2024-01-30T01:37:05;0.90;99.90
23703;DHT22;12030;50.376;8.762;2024-01-30T01:39:31;0.90;99.90
23703;DHT22;12030;50.376;8.762;2024-01-30T01:41:56;1.00;99.90
23703;DHT22;12030;50.376;8.762;2024-01-30T01:44:22;1.00;99.90
23703;DHT22;12030;50.376;8.762;2024-01-30T01:46:47;1.00;99.90
23703;DHT22;12030;50.376;8.762;2024-01-30T01:49:14;1.00;99.90
23703;DHT22;12030;50.376;8.762;2024-01-30T01:51:40;1.10;99.90
23703;DHT22;12030;50.376;8.762;2024-01-30T01:54:06;1.10;99.90
23703;DHT22;12030;50.376;8.762;2024-01-30T01:56:33;1.10;99.90
23703;DHT22;12030;50.376;8.762;2024-01-30T01:59:06;1.10;99.90
23703;DHT22;12030;50.376;8.762;2024-01-30T02:01:38;1.10;99.90
23703;DHT22;12030;50.376;8.762;2024-01-30T02:04:07;1.00;99.90
23703;DHT22;12030;50.376;8.762;2024-01-30T02:06:34;1.00;99.90
23703;DHT22;12030;50.376;8.762;2024-01-30T02:08:59;1.00;99.90
23703;DHT22;12030;50.376;8.762;2024-01-30T02:11:25;0.90;99.90
23703;DHT22;12030;50.376;8.762;2024-01-30T02:13:51;0.90;99.90
23703;DHT22;12030;50.376;8.762;2024-01-30T02:16:17;1.00;99.90
23703;DHT22;12030;50.376;8.762;2024-01-30T02:18:43;1.00;99.90
23703;DHT22;12030;50.376;8.762;2024-01-30T02:21:13;1.00;99.90
23703;DHT22;12030;50.376;8.762;2024-01-30T02:23:39;1.00;99.90
23703;DHT22;12030;50.376;8.762;2024-01-30T02:26:06;0.90;99.90
23703;DHT22;12030;50.376;8.762;2024-01-30T02:28:31;1.00;99.90
23703;DHT22;12030;50.376;8.762;2024-01-30T02:30:57;0.90;99.90
23703;DHT22;12030;50.376;8.762;2024-01-30T02:33:22;0.90;99.90
23703;DHT22;12030;50.376;8.762;2024-01-30T02:35:48;0.90;99.90
23703;DHT22;12030;50.376;8.762;2024-01-30T02:38:15;0.80;99.90
23703;DHT22;12030;50.376;8.762;2024-01-30T02:40:41;0.80;99.90
23703;DHT22;12030;50.376;8.762;2024-01-30T02:43:06;0.80;99.90
23703;DHT22;12030;50.376;8.762;2024-01-30T02:45:32;0.80;99.90
23703;DHT22;12030;50.376;8.762;2024-01-30T02:47:57;0.70;99.90
23703;DHT22;12030;50.376;8.762;2024-01-30T02:50:23;0.80;99.90
23703;DHT22;12030;50.376;8.762;2024-01-30T02:52:48;0.70;99.90
23703;DHT22;12030;50.376;8.762;2024-01-30T02:55:14;0.70;99.90
23703;DHT22;12030;50.376;8.762;2024-01-30T02:57:42;0.70;99.90
23703;DHT22;12030;50.376;8.762;2024-01-30T03:00:09;0.70;99.90
23703;DHT22;12030;50.376;8.762;2024-01-30T03:02:35;0.70;99.90
23703;DHT22;12030;50.376;8.762;2024-01-30T03:05:01;0.70;99.90
23703;DHT22;12030;50.376;8.762;2024-01-30T03:07:26;0.70;99.90
23703;DHT22;12030;50.376;8.762;2024-01-30T03:09:52;0.70;99.90
23703;DHT22;12030;50.376;8.762;2024-01-30T03:12:18;0.60;99.90
23703;DHT22;12030;50.376;8.762;2024-01-30T03:14:43;0.60;99.90
23703;DHT22;12030;50.376;8.762;2024-01-30T03:17:09;0.60;99.90
23703;DHT22;12030;50.376;8.762;2024-01-30T03:19:34;0.70;99.90
23703;DHT22;12030;50.376;8.762;2024-01-30T03:22:00;0.80;99.90
23703;DHT22;12030;50.376;8.762;2024-01-30T03:24:25;0.80;99.90
23703;DHT22;12030;50.376;8.762;2024-01-30T03:26:51;0.90;99.90
23703;DHT22;12030;50.376;8.762;2024-01-30T03:29:16;0.90;99.90
23703;DHT22;12030;50.376;8.762;2024-01-30T03:31:42;0.90;99.90
23703;DHT22;12030;50.376;8.762;2024-01-30T03:34:07;1.00;99.90
23703;DHT22;12030;50.376;8.762;2024-01-30T03:36:33;1.00;99.90
23703;DHT22;12030;50.376;8.762;2024-01-30T03:39:00;1.00;99.90
23703;DHT22;12030;50.376;8.762;2024-01-30T03:41:25;1.00;99.90
23703;DHT22;12030;50.376;8.762;2024-01-30T03:43:51;1.10;99.90
23703;DHT22;12030;50.376;8.762;2024-01-30T03:46:16;1.10;99.90
23703;DHT22;12030;50.376;8.762;2024-01-30T03:48:42;1.20;99.90
23703;DHT22;12030;50.376;8.762;2024-01-30T03:51:08;1.10;99.90
23703;DHT22;12030;50.376;8.762;2024-01-30T03:53:33;1.10;99.90
23703;DHT22;12030;50.376;8.762;2024-01-30T03:55:59;1.20;99.90
23703;DHT22;12030;50.376;8.762;2024-01-30T03:58:24;1.20;99.90
23703;DHT22;12030;50.376;8.762;2024-01-30T04:00:50;1.30;99.90
23703;DHT22;12030;50.376;8.762;2024-01-30T04:03:15;1.30;99.90
23703;DHT22;12030;50.376;8.762;2024-01-30T04:05:41;1.30;99.90
23703;DHT22;12030;50.376;8.762;2024-01-30T04:08:07;1.20;99.90
23703;DHT22;12030;50.376;8.762;2024-01-30T04:10:33;1.20;99.90
23703;DHT22;12030;50.376;8.762;2024-01-30T04:12:58;1.20;99.90
23703;DHT22;12030;50.376;8.762;2024-01-30T04:15:25;1.20;99.90
23703;DHT22;12030;50.376;8.762;2024-01-30T04:17:50;1.10;99.90
23703;DHT22;12030;50.376;8.762;2024-01-30T04:20:16;1.20;99.90
23703;DHT22;12030;50.376;8.762;2024-01-30T04:22:45;1.20;99.90
23703;DHT22;12030;50.376;8.762;2024-01-30T04:25:12;1.30;99.90
23703;DHT22;12030;50.376;8.762;2024-01-30T04:27:37;1.20;99.90
23703;DHT22;12030;50.376;8.762;2024-01-30T04:30:03;1.20;99.90
23703;DHT22;12030;50.376;8.762;2024-01-30T04:32:29;1.30;99.90
23703;DHT22;12030;50.376;8.762;2024-01-30T04:34:54;1.40;99.90
23703;DHT22;12030;50.376;8.762;2024-01-30T04:37:20;1.40;99.90
23703;DHT22;12030;50.376;8.762;2024-01-30T04:39:45;1.40;99.90
23703;DHT22;12030;50.376;8.762;2024-01-30T04:42:11;1.40;99.90
23703;DHT22;12030;50.376;8.762;2024-01-30T04:44:36;1.50;99.90
23703;DHT22;12030;50.376;8.762;2024-01-30T04:47:02;1.40;99.90
23703;DHT22;12030;50.376;8.762;2024-01-30T04:49:28;1.50;99.90
23703;DHT22;12030;50.376;8.762;2024-01-30T04:51:54;1.50;99.90
23703;DHT22;12030;50.376;8.762;2024-01-30T04:54:20;1.50;99.90
23703;DHT22;12030;50.376;8.762;2024-01-30T04:56:46;1.50;99.90
23703;DHT22;12030;50.376;8.762;2024-01-30T04:59:12;1.50;99.90
23703;DHT22;12030;50.376;8.762;2024-01-30T05:01:37;1.50;99.90
23703;DHT22;12030;50.376;8.762;2024-01-30T05:04:03;1.50;99.90
23703;DHT22;12030;50.376;8.762;2024-01-30T05:06:29;1.50;99.90
23703;DHT22;12030;50.376;8.762;2024-01-30T05:08:55;1.50;99.90
23703;DHT22;12030;50.376;8.762;2024-01-30T05:11:21;1.50;99.90
23703;DHT22;12030;50.376;8.762;2024-01-30T05:13:46;1.50;99.90
23703;DHT22;12030;50.376;8.762;2024-01-30T05:16:12;1.50;99.90
23703;DHT22;12030;50.376;8.762;2024-01-30T05:18:38;1.50;99.90
23703;DHT22;12030;50.376;8.762;2024-01-30T05:21:04;1.50;99.90
23703;DHT22;12030;50.376;8.762;2024-01-30T05:23:29;1.50;99.90
23703;DHT22;12030;50.376;8.762;2024-01-30T05:25:55;1.50;99.90
23703;DHT22;12030;50.376;8.762;2024-01-30T05:28:20;1.50;99.90
23703;DHT22;12030;50.376;8.762;2024-01-30T05:30:46;1.60;99.90
23703;DHT22;12030;50.376;8.762;2024-01-30T05:33:11;1.60;99.90
23703;DHT22;12030;50.376;8.762;2024-01-30T05:35:37;1.50;99.90
23703;DHT22;12030;50.376;8.762;2024-01-30T05:38:03;1.60;99.90
23703;DHT22;12030;50.376;8.762;2024-01-30T05:40:29;1.60;99.90
23703;DHT22;12030;50.376;8.762;2024-01-30T05:42:55;1.50;99.90
23703;DHT22;12030;50.376;8.762;2024-01-30T05:45:21;1.50;99.90
23703;DHT22;12030;50.376;8.762;2024-01-30T05:47:48;1.40;99.90
23703;DHT22;12030;50.376;8.762;2024-01-30T05:50:14;1.40;99.90
23703;DHT22;12030;50.376;8.762;2024-01-30T05:52:39;1.40;99.90
23703;DHT22;12030;50.376;8.762;2024-01-30T05:55:05;1.40;99.90
23703;DHT22;12030;50.376;8.762;2024-01-30T05:57:31;1.50;99.90
23703;DHT22;12030;50.376;8.762;2024-01-30T05:59:56;1.50;99.90
23703;DHT22;12030;50.376;8.762;2024-01-30T06:02:22;1.50;99.90
23703;DHT22;12030;50.376;8.762;2024-01-30T06:04:47;1.50;99.90
23703;DHT22;12030;50.376;8.762;2024-01-30T06:07:13;1.50;99.90
23703;DHT22;12030;50.376;8.762;2024-01-30T06:09:38;1.50;99.90
23703;DHT22;12030;50.376;8.762;2024-01-30T06:12:05;1.50;99.90
23703;DHT22;12030;50.376;8.762;2024-01-30T06:14:31;1.50;99.90
23703;DHT22;12030;50.376;8.762;2024-01-30T06:16:56;1.50;99.90
23703;DHT22;12030;50.376;8.762;2024-01-30T06:19:22;1.50;99.90
23703;DHT22;12030;50.376;8.762;2024-01-30T06:21:47;1.50;99.90
23703;DHT22;12030;50.376;8.762;2024-01-30T06:24:13;1.60;99.90
23703;DHT22;12030;50.376;8.762;2024-01-30T06:26:38;1.70;99.90
23703;DHT22;12030;50.376;8.762;2024-01-30T06:29:04;1.70;99.90
23703;DHT22;12030;50.376;8.762;2024-01-30T06:31:29;1.80;99.90
23703;DHT22;12030;50.376;8.762;2024-01-30T06:33:55;1.80;99.90
23703;DHT22;12030;50.376;8.762;2024-01-30T06:36:20;1.80;99.90
23703;DHT22;12030;50.376;8.762;2024-01-30T06:38:46;1.80;99.90
23703;DHT22;12030;50.376;8.762;2024-01-30T06:41:11;1.70;99.90
23703;DHT22;12030;50.376;8.762;2024-01-30T06:43:37;1.70;99.90
23703;DHT22;12030;50.376;8.762;2024-01-30T06:46:02;1.70;99.90
23703;DHT22;12030;50.376;8.762;2024-01-30T06:48:28;1.70;99.90
23703;DHT22;12030;50.376;8.762;2024-01-30T06:50:54;1.60;99.90
23703;DHT22;12030;50.376;8.762;2024-01-30T06:53:19;1.60;99.90
23703;DHT22;12030;50.376;8.762;2024-01-30T06:55:45;1.60;99.90
23703;DHT22;12030;50.376;8.762;2024-01-30T06:58:10;1.60;99.90
23703;DHT22;12030;50.376;8.762;2024-01-30T07:00:36;1.60;99.90
23703;DHT22;12030;50.376;8.762;2024-01-30T07:03:02;1.60;99.90
23703;DHT22;12030;50.376;8.762;2024-01-30T07:05:27;1.60;99.90
23703;DHT22;12030;50.376;8.762;2024-01-30T07:07:53;1.60;99.90
23703;DHT22;12030;50.376;8.762;2024-01-30T07:10:18;1.60;99.90
23703;DHT22;12030;50.376;8.762;2024-01-30T07:12:44;1.60;99.90
23703;DHT22;12030;50.376;8.762;2024-01-30T07:15:10;1.60;99.90
23703;DHT22;12030;50.376;8.762;2024-01-30T07:17:35;1.60;99.90
23703;DHT22;12030;50.376;8.762;2024-01-30T07:20:02;1.60;99.90
23703;DHT22;12030;50.376;8.762;2024-01-30T07:22:30;1.60;99.90
23703;DHT22;12030;50.376;8.762;2024-01-30T07:24:56;1.70;99.90
23703;DHT22;12030;50.376;8.762;2024-01-30T07:27:22;1.70;99.90
23703;DHT22;12030;50.376;8.762;2024-01-30T07:29:47;1.70;99.90
23703;DHT22;12030;50.376;8.762;2024-01-30T07:32:13;1.80;99.90
23703;DHT22;12030;50.376;8.762;2024-01-30T07:34:38;1.80;99.90
23703;DHT22;12030;50.376;8.762;2024-01-30T07:37:04;1.80;99.90
23703;DHT22;12030;50.376;8.762;2024-01-30T07:39:29;1.80;99.90
23703;DHT22;12030;50.376;8.762;2024-01-30T07:41:55;1.80;99.90
23703;DHT22;12030;50.376;8.762;2024-01-30T07:44:20;1.90;99.90
23703;DHT22;12030;50.376;8.762;2024-01-30T07:46:46;1.90;99.90
23703;DHT22;12030;50.376;8.762;2024-01-30T07:49:12;1.80;99.90
23703;DHT22;12030;50.376;8.762;2024-01-30T07:51:39;1.90;99.90
23703;DHT22;12030;50.376;8.762;2024-01-30T07:54:05;1.90;99.90
23703;DHT22;12030;50.376;8.762;2024-01-30T07:56:30;2.00;99.90
23703;DHT22;12030;50.376;8.762;2024-01-30T07:58:56;2.00;99.90
23703;DHT22;12030;50.376;8.762;2024-01-30T08:01:21;2.10;99.90
23703;DHT22;12030;50.376;8.762;2024-01-30T08:03:47;2.10;99.90
23703;DHT22;12030;50.376;8.762;2024-01-30T08:06:12;2.20;99.90
23703;DHT22;12030;50.376;8.762;2024-01-30T08:08:38;2.30;99.90
23703;DHT22;12030;50.376;8.762;2024-01-30T08:11:03;2.30;99.90
23703;DHT22;12030;50.376;8.762;2024-01-30T08:13:29;2.30;99.90
23703;DHT22;12030;50.376;8.762;2024-01-30T08:15:55;2.40;99.90
23703;DHT22;12030;50.376;8.762;2024-01-30T08:18:20;2.50;99.90
23703;DHT22;12030;50.376;8.762;2024-01-30T08:20:46;2.50;99.90
23703;DHT22;12030;50.376;8.762;2024-01-30T08:23:11;2.60;99.90
23703;DHT22;12030;50.376;8.762;2024-01-30T08:25:37;2.60;99.90
23703;DHT22;12030;50.376;8.762;2024-01-30T08:28:03;2.60;99.90
23703;DHT22;12030;50.376;8.762;2024-01-30T08:30:29;2.70;99.90
23703;DHT22;12030;50.376;8.762;2024-01-30T08:32:54;2.80;99.90
23703;DHT22;12030;50.376;8.762;2024-01-30T08:35:20;2.80;99.90
23703;DHT22;12030;50.376;8.762;2024-01-30T08:37:46;2.90;99.90
23703;DHT22;12030;50.376;8.762;2024-01-30T08:40:11;3.00;99.90
23703;DHT22;12030;50.376;8.762;2024-01-30T08:42:37;3.00;99.90
23703;DHT22;12030;50.376;8.762;2024-01-30T08:45:03;3.00;99.90
23703;DHT22;12030;50.376;8.762;2024-01-30T08:47:30;3.10;99.90
23703;DHT22;12030;50.376;8.762;2024-01-30T08:49:55;3.20;99.90
23703;DHT22;12030;50.376;8.762;2024-01-30T08:52:21;3.20;99.90
23703;DHT22;12030;50.376;8.762;2024-01-30T08:54:46;3.30;99.90
23703;DHT22;12030;50.376;8.762;2024-01-30T08:57:12;3.40;99.90
23703;DHT22;12030;50.376;8.762;2024-01-30T08:59:37;3.50;99.90
23703;DHT22;12030;50.376;8.762;2024-01-30T09:02:03;3.60;99.90
23703;DHT22;12030;50.376;8.762;2024-01-30T09:04:29;3.70;99.90
23703;DHT22;12030;50.376;8.762;2024-01-30T09:06:55;3.70;99.90
23703;DHT22;12030;50.376;8.762;2024-01-30T09:09:20;3.90;99.90
23703;DHT22;12030;50.376;8.762;2024-01-30T09:11:46;4.00;99.90
23703;DHT22;12030;50.376;8.762;2024-01-30T09:14:12;4.00;99.90
23703;DHT22;12030;50.376;8.762;2024-01-30T09:16:37;4.20;99.90
23703;DHT22;12030;50.376;8.762;2024-01-30T09:19:03;4.30;99.90
23703;DHT22;12030;50.376;8.762;2024-01-30T09:21:29;4.30;99.90
23703;DHT22;12030;50.376;8.762;2024-01-30T09:23:54;4.30;99.90
23703;DHT22;12030;50.376;8.762;2024-01-30T09:26:20;4.30;99.90
23703;DHT22;12030;50.376;8.762;2024-01-30T09:28:46;4.40;99.90
23703;DHT22;12030;50.376;8.762;2024-01-30T09:31:14;4.50;99.90
23703;DHT22;12030;50.376;8.762;2024-01-30T09:33:40;4.60;99.90
23703;DHT22;12030;50.376;8.762;2024-01-30T09:36:06;4.60;99.90
23703;DHT22;12030;50.376;8.762;2024-01-30T09:38:32;4.70;99.90
23703;DHT22;12030;50.376;8.762;2024-01-30T09:41:03;4.70;99.90
23703;DHT22;12030;50.376;8.762;2024-01-30T09:43:33;4.80;99.90
23703;DHT22;12030;50.376;8.762;2024-01-30T09:46:00;4.90;99.90
23703;DHT22;12030;50.376;8.762;2024-01-30T09:48:28;4.90;99.90
23703;DHT22;12030;50.376;8.762;2024-01-30T09:50:54;4.90;99.90
23703;DHT22;12030;50.376;8.762;2024-01-30T09:53:22;5.00;99.90
23703;DHT22;12030;50.376;8.762;2024-01-30T09:55:50;5.10;99.90
23703;DHT22;12030;50.376;8.762;2024-01-30T09:58:16;5.20;99.90
23703;DHT22;12030;50.376;8.762;2024-01-30T10:00:41;5.20;99.90
23703;DHT22;12030;50.376;8.762;2024-01-30T10:03:08;5.10;99.90
23703;DHT22;12030;50.376;8.762;2024-01-30T10:05:35;5.10;99.90
23703;DHT22;12030;50.376;8.762;2024-01-30T10:08:06;5.20;99.90
23703;DHT22;12030;50.376;8.762;2024-01-30T10:10:33;5.20;99.90
23703;DHT22;12030;50.376;8.762;2024-01-30T10:12:59;5.20;99.90
23703;DHT22;12030;50.376;8.762;2024-01-30T10:15:25;5.20;99.90
23703;DHT22;12030;50.376;8.762;2024-01-30T10:17:52;5.30;99.90
23703;DHT22;12030;50.376;8.762;2024-01-30T10:20:18;5.30;99.90
23703;DHT22;12030;50.376;8.762;2024-01-30T10:22:44;5.30;99.90
23703;DHT22;12030;50.376;8.762;2024-01-30T10:25:11;5.40;99.90
23703;DHT22;12030;50.376;8.762;2024-01-30T10:27:37;5.40;99.90
23703;DHT22;12030;50.376;8.762;2024-01-30T10:30:05;5.40;99.90
23703;DHT22;12030;50.376;8.762;2024-01-30T10:32:30;5.50;99.90
23703;DHT22;12030;50.376;8.762;2024-01-30T10:34:56;5.50;99.90
23703;DHT22;12030;50.376;8.762;2024-01-30T10:37:25;5.50;99.90
23703;DHT22;12030;50.376;8.762;2024-01-30T10:39:53;5.60;99.90
23703;DHT22;12030;50.376;8.762;2024-01-30T10:42:18;5.60;99.90
23703;DHT22;12030;50.376;8.762;2024-01-30T10:44:48;5.70;99.90
23703;DHT22;12030;50.376;8.762;2024-01-30T10:47:21;5.80;99.90
23703;DHT22;12030;50.376;8.762;2024-01-30T10:49:47;5.70;99.90
23703;DHT22;12030;50.376;8.762;2024-01-30T10:52:13;5.80;99.90
23703;DHT22;12030;50.376;8.762;2024-01-30T10:54:40;5.70;99.90
23703;DHT22;12030;50.376;8.762;2024-01-30T10:57:11;5.70;99.90
23703;DHT22;12030;50.376;8.762;2024-01-30T10:59:38;5.90;99.90
23703;DHT22;12030;50.376;8.762;2024-01-30T11:02:05;6.00;99.90
23703;DHT22;12030;50.376;8.762;2024-01-30T11:04:38;6.00;99.90
23703;DHT22;12030;50.376;8.762;2024-01-30T11:07:25;6.10;99.90
23703;DHT22;12030;50.376;8.762;2024-01-30T11:09:51;6.10;99.90
23703;DHT22;12030;50.376;8.762;2024-01-30T11:12:20;6.00;99.90
23703;DHT22;12030;50.376;8.762;2024-01-30T11:14:46;6.00;99.90
23703;DHT22;12030;50.376;8.762;2024-01-30T11:17:12;6.20;99.90
23703;DHT22;12030;50.376;8.762;2024-01-30T11:19:38;6.20;99.90
23703;DHT22;12030;50.376;8.762;2024-01-30T11:22:06;6.20;99.90
23703;DHT22;12030;50.376;8.762;2024-01-30T11:24:40;6.20;99.90
23703;DHT22;12030;50.376;8.762;2024-01-30T11:27:09;6.20;99.90
23703;DHT22;12030;50.376;8.762;2024-01-30T11:29:36;6.20;99.90
23703;DHT22;12030;50.376;8.762;2024-01-30T11:32:02;6.30;99.90
23703;DHT22;12030;50.376;8.762;2024-01-30T11:34:28;6.40;99.90
23703;DHT22;12030;50.376;8.762;2024-01-30T11:36:58;6.40;99.90
23703;DHT22;12030;50.376;8.762;2024-01-30T11:39:28;6.40;99.90
23703;DHT22;12030;50.376;8.762;2024-01-30T11:41:54;6.50;99.90
23703;DHT22;12030;50.376;8.762;2024-01-30T11:44:21;6.50;99.90
23703;DHT22;12030;50.376;8.762;2024-01-30T11:46:48;6.40;99.90
23703;DHT22;12030;50.376;8.762;2024-01-30T11:49:13;6.50;99.90
23703;DHT22;12030;50.376;8.762;2024-01-30T11:51:39;6.50;99.90
23703;DHT22;12030;50.376;8.762;2024-01-30T11:54:05;6.60;99.90
23703;DHT22;12030;50.376;8.762;2024-01-30T11:56:30;6.60;99.90
23703;DHT22;12030;50.376;8.762;2024-01-30T11:58:56;6.70;99.90
23703;DHT22;12030;50.376;8.762;2024-01-30T12:01:21;6.80;99.90
23703;DHT22;12030;50.376;8.762;2024-01-30T12:03:50;6.80;99.90
23703;DHT22;12030;50.376;8.762;2024-01-30T12:06:16;6.90;99.90
23703;DHT22;12030;50.376;8.762;2024-01-30T12:08:42;7.00;99.90
23703;DHT22;12030;50.376;8.762;2024-01-30T12:11:08;7.00;99.90
23703;DHT22;12030;50.376;8.762;2024-01-30T12:13:34;7.00;99.90
23703;DHT22;12030;50.376;8.762;2024-01-30T12:16:02;7.10;99.90
23703;DHT22;12030;50.376;8.762;2024-01-30T12:18:28;7.20;99.90
23703;DHT22;12030;50.376;8.762;2024-01-30T12:21:00;7.30;99.90
23703;DHT22;12030;50.376;8.762;2024-01-30T12:23:27;7.20;99.90
23703;DHT22;12030;50.376;8.762;2024-01-30T12:25:53;7.30;99.90
23703;DHT22;12030;50.376;8.762;2024-01-30T12:28:20;7.30;99.90
23703;DHT22;12030;50.376;8.762;2024-01-30T12:30:45;7.40;99.90
23703;DHT22;12030;50.376;8.762;2024-01-30T12:33:16;7.30;99.90
23703;DHT22;12030;50.376;8.762;2024-01-30T12:35:46;7.30;99.90
23703;DHT22;12030;50.376;8.762;2024-01-30T12:38:13;7.30;99.90
23703;DHT22;12030;50.376;8.762;2024-01-30T12:40:39;7.30;99.90
23703;DHT22;12030;50.376;8.762;2024-01-30T12:43:04;7.50;99.90
23703;DHT22;12030;50.376;8.762;2024-01-30T12:45:30;7.50;99.90
23703;DHT22;12030;50.376;8.762;2024-01-30T12:47:55;7.50;99.90
23703;DHT22;12030;50.376;8.762;2024-01-30T12:50:21;7.40;99.90
23703;DHT22;12030;50.376;8.762;2024-01-30T12:52:47;7.40;99.90
23703;DHT22;12030;50.376;8.762;2024-01-30T12:55:13;7.50;99.90
23703;DHT22;12030;50.376;8.762;2024-01-30T12:57:39;7.50;99.90
23703;DHT22;12030;50.376;8.762;2024-01-30T13:00:05;7.60;99.90
23703;DHT22;12030;50.376;8.762;2024-01-30T13:02:34;7.60;99.90
23703;DHT22;12030;50.376;8.762;2024-01-30T13:05:03;7.60;99.90
23703;DHT22;12030;50.376;8.762;2024-01-30T13:07:29;7.60;99.90
23703;DHT22;12030;50.376;8.762;2024-01-30T13:09:55;7.60;99.90
23703;DHT22;12030;50.376;8.762;2024-01-30T13:12:21;7.60;99.90
23703;DHT22;12030;50.376;8.762;2024-01-30T13:14:47;7.60;99.90
23703;DHT22;12030;50.376;8.762;2024-01-30T13:17:12;7.70;99.90
23703;DHT22;12030;50.376;8.762;2024-01-30T13:19:38;7.70;99.90
23703;DHT22;12030;50.376;8.762;2024-01-30T13:22:04;7.70;99.90
23703;DHT22;12030;50.376;8.762;2024-01-30T13:24:29;7.80;99.90
23703;DHT22;12030;50.376;8.762;2024-01-30T13:26:55;7.70;99.90
23703;DHT22;12030;50.376;8.762;2024-01-30T13:29:20;7.80;99.90
23703;DHT22;12030;50.376;8.762;2024-01-30T13:31:46;7.80;99.90
23703;DHT22;12030;50.376;8.762;2024-01-30T13:34:12;7.90;99.90
23703;DHT22;12030;50.376;8.762;2024-01-30T13:36:39;7.90;99.90
23703;DHT22;12030;50.376;8.762;2024-01-30T13:39:05;7.90;99.90
23703;DHT22;12030;50.376;8.762;2024-01-30T13:41:34;8.00;99.90
23703;DHT22;12030;50.376;8.762;2024-01-30T13:43:59;8.10;99.90
23703;DHT22;12030;50.376;8.762;2024-01-30T13:46:25;8.10;99.90
23703;DHT22;12030;50.376;8.762;2024-01-30T13:48:51;8.10;99.90
23703;DHT22;12030;50.376;8.762;2024-01-30T13:51:16;8.10;99.90
23703;DHT22;12030;50.376;8.762;2024-01-30T13:53:42;8.10;99.90
23703;DHT22;12030;50.376;8.762;2024-01-30T13:56:08;8.20;99.90
23703;DHT22;12030;50.376;8.762;2024-01-30T13:58:33;8.20;99.90
23703;DHT22;12030;50.376;8.762;2024-01-30T14:01:01;8.30;99.90
23703;DHT22;12030;50.376;8.762;2024-01-30T14:03:27;8.30;99.90
23703;DHT22;12030;50.376;8.762;2024-01-30T14:05:53;8.30;99.90
23703;DHT22;12030;50.376;8.762;2024-01-30T14:08:18;8.30;99.90
23703;DHT22;12030;50.376;8.762;2024-01-30T14:10:47;8.30;99.90
23703;DHT22;12030;50.376;8.762;2024-01-30T14:13:12;8.30;99.90
23703;DHT22;12030;50.376;8.762;2024-01-30T14:15:38;8.30;99.90
23703;DHT22;12030;50.376;8.762;2024-01-30T14:18:04;8.30;99.90
23703;DHT22;12030;50.376;8.762;2024-01-30T14:20:30;8.30;99.90
23703;DHT22;12030;50.376;8.762;2024-01-30T14:22:56;8.30;99.90
23703;DHT22;12030;50.376;8.762;2024-01-30T14:25:22;8.30;99.90
23703;DHT22;12030;50.376;8.762;2024-01-30T14:27:47;8.30;99.90
23703;DHT22;12030;50.376;8.762;2024-01-30T14:30:13;8.30;99.90
23703;DHT22;12030;50.376;8.762;2024-01-30T14:32:38;8.20;99.90
23703;DHT22;12030;50.376;8.762;2024-01-30T14:35:06;8.20;99.90
23703;DHT22;12030;50.376;8.762;2024-01-30T14:37:31;8.20;99.90
23703;DHT22;12030;50.376;8.762;2024-01-30T14:39:57;8.20;99.90
23703;DHT22;12030;50.376;8.762;2024-01-30T14:42:22;8.30;99.90
23703;DHT22;12030;50.376;8.762;2024-01-30T14:44:48;8.20;99.90
23703;DHT22;12030;50.376;8.762;2024-01-30T14:47:14;8.20;99.90
23703;DHT22;12030;50.376;8.762;2024-01-30T14:49:40;8.20;99.90
23703;DHT22;12030;50.376;8.762;2024-01-30T14:52:05;8.20;99.90
23703;DHT22;12030;50.376;8.762;2024-01-30T14:54:31;8.20;99.90
23703;DHT22;12030;50.376;8.762;2024-01-30T14:56:57;8.20;99.90
23703;DHT22;12030;50.376;8.762;2024-01-30T14:59:23;8.20;99.90
23703;DHT22;12030;50.376;8.762;2024-01-30T15:01:48;8.10;99.90
23703;DHT22;12030;50.376;8.762;2024-01-30T15:04:14;8.10;99.90
23703;DHT22;12030;50.376;8.762;2024-01-30T15:06:40;8.10;99.90
23703;DHT22;12030;50.376;8.762;2024-01-30T15:09:11;8.00;99.90
23703;DHT22;12030;50.376;8.762;2024-01-30T15:11:36;8.00;99.90
23703;DHT22;12030;50.376;8.762;2024-01-30T15:14:02;8.10;99.90
23703;DHT22;12030;50.376;8.762;2024-01-30T15:16:28;8.00;99.90
23703;DHT22;12030;50.376;8.762;2024-01-30T15:18:53;8.00;99.90
23703;DHT22;12030;50.376;8.762;2024-01-30T15:21:19;8.00;99.90
23703;DHT22;12030;50.376;8.762;2024-01-30T15:23:48;8.00;99.90
23703;DHT22;12030;50.376;8.762;2024-01-30T15:26:14;8.00;99.90
23703;DHT22;12030;50.376;8.762;2024-01-30T15:28:40;8.00;99.90
23703;DHT22;12030;50.376;8.762;2024-01-30T15:31:06;8.00;99.90
23703;DHT22;12030;50.376;8.762;2024-01-30T15:33:32;8.00;99.90
23703;DHT22;12030;50.376;8.762;2024-01-30T15:36:01;8.00;99.90
23703;DHT22;12030;50.376;8.762;2024-01-30T15:38:27;8.00;99.90